sensor_id;sensor_type;location;lat;lon;timestamp;pressure;altitude;pressure_sealevel;temperature;humidity
75551;BME280;65071;53.082;18.218;2024-01-11T00:01:09;102361.04;;;-2.57;88.47
75551;BME280;65071;53.082;18.218;2024-01-11T00:03:39;102352.42;;;-2.57;89.09
75551;BME280;65071;53.082;18.218;2024-01-11T00:06:06;102362.73;;;-2.62;89.12
75551;BME280;65071;53.082;18.218;2024-01-11T00:08:33;102365.27;;;-2.66;89.25
75551;BME280;65071;53.082;18.218;2024-01-11T00:10:59;102365.15;;;-2.68;90.13
75551;BME280;65071;53.082;18.218;2024-01-11T00:13:26;102365.95;;;-2.64;89.69
75551;BME280;65071;53.082;18.218;2024-01-11T00:15:52;102359.33;;;-2.59;89.56
75551;BME280;65071;53.082;18.218;2024-01-11T00:18:19;102353.13;;;-2.58;89.71
75551;BME280;65071;53.082;18.218;2024-01-11T00:20:45;102341.72;;;-2.59;89.58
75551;BME280;65071;53.082;18.218;2024-01-11T00:23:12;102336.30;;;-2.61;90.13
75551;BME280;65071;53.082;18.218;2024-01-11T00:25:38;102338.94;;;-2.61;90.61
75551;BME280;65071;53.082;18.218;2024-01-11T00:28:05;102337.92;;;-2.55;90.53
75551;BME280;65071;53.082;18.218;2024-01-11T00:30:31;102338.38;;;-2.51;90.13
75551;BME280;65071;53.082;18.218;2024-01-11T00:32:58;102337.98;;;-2.49;89.96
75551;BME280;65071;53.082;18.218;2024-01-11T00:35:24;102324.12;;;-2.51;90.05
75551;BME280;65071;53.082;18.218;2024-01-11T00:37:50;102321.83;;;-2.52;89.76
75551;BME280;65071;53.082;18.218;2024-01-11T00:40:17;102324.58;;;-2.48;89.83
75551;BME280;65071;53.082;18.218;2024-01-11T00:42:43;102319.94;;;-2.46;89.84
75551;BME280;65071;53.082;18.218;2024-01-11T00:45:09;102311.05;;;-2.42;89.57
75551;BME280;65071;53.082;18.218;2024-01-11T00:47:36;102300.41;;;-2.38;90.27
75551;BME280;65071;53.082;18.218;2024-01-11T00:50:02;102296.20;;;-2.39;90.27
75551;BME280;65071;53.082;18.218;2024-01-11T00:52:29;102299.15;;;-2.38;90.56
75551;BME280;65071;53.082;18.218;2024-01-11T00:54:55;102301.42;;;-2.37;90.54
75551;BME280;65071;53.082;18.218;2024-01-11T00:57:21;102291.50;;;-2.34;90.94
75551;BME280;65071;53.082;18.218;2024-01-11T00:59:50;102289.09;;;-2.29;90.64
75551;BME280;65071;53.082;18.218;2024-01-11T01:02:17;102292.34;;;-2.25;90.23
75551;BME280;65071;53.082;18.218;2024-01-11T01:04:45;102291.16;;;-2.20;90.43
75551;BME280;65071;53.082;18.218;2024-01-11T01:07:11;102298.92;;;-2.20;90.06
75551;BME280;65071;53.082;18.218;2024-01-11T01:09:37;102303.98;;;-2.18;90.17
75551;BME280;65071;53.082;18.218;2024-01-11T01:12:05;102309.42;;;-2.16;90.65
75551;BME280;65071;53.082;18.218;2024-01-11T01:14:32;102316.09;;;-2.15;90.34
75551;BME280;65071;53.082;18.218;2024-01-11T01:16:58;102314.95;;;-2.11;90.28
75551;BME280;65071;53.082;18.218;2024-01-11T01:19:25;102306.66;;;-2.04;89.95
75551;BME280;65071;53.082;18.218;2024-01-11T01:21:51;102305.48;;;-1.98;90.08
75551;BME280;65071;53.082;18.218;2024-01-11T01:24:17;102313.06;;;-1.99;90.08
75551;BME280;65071;53.082;18.218;2024-01-11T01:26:43;102314.84;;;-1.99;90.25
75551;BME280;65071;53.082;18.218;2024-01-11T01:29:09;102311.52;;;-2.00;90.32
75551;BME280;65071;53.082;18.218;2024-01-11T01:31:36;102314.56;;;-2.02;90.32
75551;BME280;65071;53.082;18.218;2024-01-11T01:34:04;102312.14;;;-1.97;90.72
75551;BME280;65071;53.082;18.218;2024-01-11T01:36:30;102308.22;;;-1.95;90.40
75551;BME280;65071;53.082;18.218;2024-01-11T01:38:57;102297.52;;;-1.90;90.21
75551;BME280;65071;53.082;18.218;2024-01-11T01:41:23;102296.55;;;-1.86;90.16
75551;BME280;65071;53.082;18.218;2024-01-11T01:43:50;102286.50;;;-1.86;90.36
75551;BME280;65071;53.082;18.218;2024-01-11T01:46:23;102296.94;;;-1.87;90.33
75551;BME280;65071;53.082;18.218;2024-01-11T01:48:51;102300.08;;;-1.86;90.75
75551;BME280;65071;53.082;18.218;2024-01-11T01:51:18;102304.06;;;-1.83;90.47
75551;BME280;65071;53.082;18.218;2024-01-11T01:53:45;102306.20;;;-1.78;90.20
75551;BME280;65071;53.082;18.218;2024-01-11T01:56:12;102310.41;;;-1.77;90.60
75551;BME280;65071;53.082;18.218;2024-01-11T01:58:39;102320.52;;;-1.79;90.46
75551;BME280;65071;53.082;18.218;2024-01-11T02:01:05;102320.21;;;-1.80;90.58
75551;BME280;65071;53.082;18.218;2024-01-11T02:03:32;102328.17;;;-1.82;90.60
75551;BME280;65071;53.082;18.218;2024-01-11T02:06:00;102328.44;;;-1.78;90.27
75551;BME280;65071;53.082;18.218;2024-01-11T02:08:28;102323.05;;;-1.74;90.16
75551;BME280;65071;53.082;18.218;2024-01-11T02:10:56;102318.02;;;-1.70;90.30
75551;BME280;65071;53.082;18.218;2024-01-11T02:13:22;102324.49;;;-1.68;90.46
75551;BME280;65071;53.082;18.218;2024-01-11T02:15:49;102321.13;;;-1.67;90.56
75551;BME280;65071;53.082;18.218;2024-01-11T02:18:15;102314.64;;;-1.69;90.57
75551;BME280;65071;53.082;18.218;2024-01-11T02:20:42;102305.71;;;-1.72;90.66
75551;BME280;65071;53.082;18.218;2024-01-11T02:23:13;102301.95;;;-1.69;90.72
75551;BME280;65071;53.082;18.218;2024-01-11T02:25:41;102297.45;;;-1.66;90.53
75551;BME280;65071;53.082;18.218;2024-01-11T02:28:07;102299.59;;;-1.60;90.54
75551;BME280;65071;53.082;18.218;2024-01-11T02:30:34;102296.13;;;-1.56;90.47
75551;BME280;65071;53.082;18.218;2024-01-11T02:33:01;102290.56;;;-1.52;90.40
75551;BME280;65071;53.082;18.218;2024-01-11T02:35:27;102287.14;;;-1.49;90.13
75551;BME280;65071;53.082;18.218;2024-01-11T02:37:55;102291.38;;;-1.50;90.56
75551;BME280;65071;53.082;18.218;2024-01-11T02:40:21;102279.02;;;-1.49;90.62
75551;BME280;65071;53.082;18.218;2024-01-11T02:42:47;102272.31;;;-1.49;90.68
75551;BME280;65071;53.082;18.218;2024-01-11T02:45:14;102263.98;;;-1.47;90.74
75551;BME280;65071;53.082;18.218;2024-01-11T02:47:41;102258.69;;;-1.47;90.88
75551;BME280;65071;53.082;18.218;2024-01-11T02:50:07;102263.29;;;-1.41;91.00
75551;BME280;65071;53.082;18.218;2024-01-11T02:52:34;102269.11;;;-1.34;90.62
75551;BME280;65071;53.082;18.218;2024-01-11T02:55:01;102264.55;;;-1.28;90.72
75551;BME280;65071;53.082;18.218;2024-01-11T02:57:27;102264.65;;;-1.26;90.70
75551;BME280;65071;53.082;18.218;2024-01-11T02:59:53;102261.63;;;-1.24;90.59
75551;BME280;65071;53.082;18.218;2024-01-11T03:02:20;102249.41;;;-1.23;91.14
75551;BME280;65071;53.082;18.218;2024-01-11T03:04:46;102241.08;;;-1.22;91.06
75551;BME280;65071;53.082;18.218;2024-01-11T03:07:13;102220.94;;;-1.21;91.10
75551;BME280;65071;53.082;18.218;2024-01-11T03:09:39;102217.09;;;-1.17;90.74
75551;BME280;65071;53.082;18.218;2024-01-11T03:12:05;102221.73;;;-1.12;90.66
75551;BME280;65071;53.082;18.218;2024-01-11T03:14:32;102215.13;;;-1.09;90.70
75551;BME280;65071;53.082;18.218;2024-01-11T03:16:59;102200.95;;;-1.08;90.64
75551;BME280;65071;53.082;18.218;2024-01-11T03:19:26;102194.36;;;-1.06;91.07
75551;BME280;65071;53.082;18.218;2024-01-11T03:21:53;102194.85;;;-1.04;91.13
75551;BME280;65071;53.082;18.218;2024-01-11T03:24:20;102191.12;;;-1.04;91.35
75551;BME280;65071;53.082;18.218;2024-01-11T03:26:47;102185.76;;;-1.01;91.01
75551;BME280;65071;53.082;18.218;2024-01-11T03:29:14;102189.34;;;-0.97;90.85
75551;BME280;65071;53.082;18.218;2024-01-11T03:31:41;102184.39;;;-0.97;91.31
75551;BME280;65071;53.082;18.218;2024-01-11T03:34:08;102193.16;;;-0.95;91.05
75551;BME280;65071;53.082;18.218;2024-01-11T03:36:34;102200.92;;;-0.89;91.32
75551;BME280;65071;53.082;18.218;2024-01-11T03:39:01;102193.23;;;-0.86;91.20
75551;BME280;65071;53.082;18.218;2024-01-11T03:41:27;102194.78;;;-0.85;91.15
75551;BME280;65071;53.082;18.218;2024-01-11T03:43:54;102185.41;;;-0.84;91.28
75551;BME280;65071;53.082;18.218;2024-01-11T03:46:20;102181.84;;;-0.83;91.48
75551;BME280;65071;53.082;18.218;2024-01-11T03:48:47;102171.30;;;-0.79;91.42
75551;BME280;65071;53.082;18.218;2024-01-11T03:51:14;102168.03;;;-0.76;91.16
75551;BME280;65071;53.082;18.218;2024-01-11T03:53:40;102163.47;;;-0.77;91.46
75551;BME280;65071;53.082;18.218;2024-01-11T03:56:06;102165.24;;;-0.78;91.71
75551;BME280;65071;53.082;18.218;2024-01-11T03:58:32;102161.48;;;-0.75;91.97
75551;BME280;65071;53.082;18.218;2024-01-11T04:01:00;102151.05;;;-0.69;91.66
75551;BME280;65071;53.082;18.218;2024-01-11T04:03:26;102137.08;;;-0.63;91.57
75551;BME280;65071;53.082;18.218;2024-01-11T04:05:52;102124.83;;;-0.62;91.82
75551;BME280;65071;53.082;18.218;2024-01-11T04:10:45;102114.84;;;-0.59;91.77
75551;BME280;65071;53.082;18.218;2024-01-11T04:13:11;102115.01;;;-0.53;91.74
75551;BME280;65071;53.082;18.218;2024-01-11T04:15:37;102097.33;;;-0.52;92.28
75551;BME280;65071;53.082;18.218;2024-01-11T04:18:04;102089.80;;;-0.50;92.24
75551;BME280;65071;53.082;18.218;2024-01-11T04:20:30;102091.70;;;-0.48;92.10
75551;BME280;65071;53.082;18.218;2024-01-11T04:22:56;102079.44;;;-0.46;92.13
75551;BME280;65071;53.082;18.218;2024-01-11T04:25:23;102092.15;;;-0.46;92.17
75551;BME280;65071;53.082;18.218;2024-01-11T04:27:49;102105.16;;;-0.44;92.20
75551;BME280;65071;53.082;18.218;2024-01-11T04:30:16;102113.52;;;-0.40;92.25
75551;BME280;65071;53.082;18.218;2024-01-11T04:32:42;102107.35;;;-0.35;92.23
75551;BME280;65071;53.082;18.218;2024-01-11T04:35:08;102102.34;;;-0.34;92.45
75551;BME280;65071;53.082;18.218;2024-01-11T04:37:35;102101.17;;;-0.25;91.88
75551;BME280;65071;53.082;18.218;2024-01-11T04:40:02;102092.50;;;-0.20;92.31
75551;BME280;65071;53.082;18.218;2024-01-11T04:42:29;102084.33;;;-0.19;92.42
75551;BME280;65071;53.082;18.218;2024-01-11T04:44:56;102082.59;;;-0.20;92.83
75551;BME280;65071;53.082;18.218;2024-01-11T04:47:22;102083.41;;;-0.18;92.47
75551;BME280;65071;53.082;18.218;2024-01-11T04:49:48;102090.30;;;-0.13;92.19
75551;BME280;65071;53.082;18.218;2024-01-11T04:52:15;102090.41;;;-0.10;92.41
75551;BME280;65071;53.082;18.218;2024-01-11T04:54:42;102092.48;;;-0.09;92.52
75551;BME280;65071;53.082;18.218;2024-01-11T04:57:08;102091.08;;;-0.09;92.62
75551;BME280;65071;53.082;18.218;2024-01-11T04:59:35;102097.19;;;-0.07;92.81
75551;BME280;65071;53.082;18.218;2024-01-11T05:02:01;102088.14;;;-0.06;92.64
75551;BME280;65071;53.082;18.218;2024-01-11T05:04:28;102077.81;;;-0.04;92.74
75551;BME280;65071;53.082;18.218;2024-01-11T05:06:54;102093.20;;;-0.04;92.85
75551;BME280;65071;53.082;18.218;2024-01-11T05:09:20;102097.02;;;-0.03;92.90
75551;BME280;65071;53.082;18.218;2024-01-11T05:11:47;102105.50;;;0.03;92.80
75551;BME280;65071;53.082;18.218;2024-01-11T05:14:13;102101.27;;;0.08;92.46
75551;BME280;65071;53.082;18.218;2024-01-11T05:16:39;102096.15;;;0.13;92.36
75551;BME280;65071;53.082;18.218;2024-01-11T05:19:07;102097.45;;;0.16;92.09
75551;BME280;65071;53.082;18.218;2024-01-11T05:21:34;102088.98;;;0.15;92.45
75551;BME280;65071;53.082;18.218;2024-01-11T05:24:00;102079.66;;;0.14;92.55
75551;BME280;65071;53.082;18.218;2024-01-11T05:26:27;102080.88;;;0.14;92.45
75551;BME280;65071;53.082;18.218;2024-01-11T05:28:53;102084.08;;;0.19;92.28
75551;BME280;65071;53.082;18.218;2024-01-11T05:31:20;102086.57;;;0.23;92.06
75551;BME280;65071;53.082;18.218;2024-01-11T05:33:47;102085.93;;;0.26;92.18
75551;BME280;65071;53.082;18.218;2024-01-11T05:36:13;102090.36;;;0.26;92.01
75551;BME280;65071;53.082;18.218;2024-01-11T05:38:39;102091.92;;;0.27;92.10
75551;BME280;65071;53.082;18.218;2024-01-11T05:41:07;102086.02;;;0.28;92.04
75551;BME280;65071;53.082;18.218;2024-01-11T05:43:34;102081.23;;;0.33;91.97
75551;BME280;65071;53.082;18.218;2024-01-11T05:46:00;102081.81;;;0.37;91.84
75551;BME280;65071;53.082;18.218;2024-01-11T05:48:26;102082.93;;;0.40;91.73
75551;BME280;65071;53.082;18.218;2024-01-11T05:50:53;102077.93;;;0.41;91.88
75551;BME280;65071;53.082;18.218;2024-01-11T05:53:19;102082.89;;;0.41;91.79
75551;BME280;65071;53.082;18.218;2024-01-11T05:55:47;102070.45;;;0.43;91.73
75551;BME280;65071;53.082;18.218;2024-01-11T05:58:14;102066.98;;;0.41;91.62
75551;BME280;65071;53.082;18.218;2024-01-11T06:00:40;102064.66;;;0.41;91.79
75551;BME280;65071;53.082;18.218;2024-01-11T06:03:07;102062.11;;;0.43;91.68
75551;BME280;65071;53.082;18.218;2024-01-11T06:05:34;102050.79;;;0.43;91.84
75551;BME280;65071;53.082;18.218;2024-01-11T06:08:00;102046.17;;;0.43;91.69
75551;BME280;65071;53.082;18.218;2024-01-11T06:10:26;102040.34;;;0.43;92.08
75551;BME280;65071;53.082;18.218;2024-01-11T06:12:53;102045.61;;;0.44;91.89
75551;BME280;65071;53.082;18.218;2024-01-11T06:15:20;102045.42;;;0.49;91.65
75551;BME280;65071;53.082;18.218;2024-01-11T06:17:46;102046.15;;;0.53;91.62
75551;BME280;65071;53.082;18.218;2024-01-11T06:20:12;102042.86;;;0.56;91.54
75551;BME280;65071;53.082;18.218;2024-01-11T06:22:39;102046.94;;;0.56;91.59
75551;BME280;65071;53.082;18.218;2024-01-11T06:25:05;102049.02;;;0.57;91.76
75551;BME280;65071;53.082;18.218;2024-01-11T06:27:32;102052.70;;;0.58;91.67
75551;BME280;65071;53.082;18.218;2024-01-11T06:29:59;102053.95;;;0.63;91.61
75551;BME280;65071;53.082;18.218;2024-01-11T06:32:25;102059.96;;;0.67;91.19
75551;BME280;65071;53.082;18.218;2024-01-11T06:34:52;102062.90;;;0.69;91.08
75551;BME280;65071;53.082;18.218;2024-01-11T06:37:18;102055.75;;;0.70;91.16
75551;BME280;65071;53.082;18.218;2024-01-11T06:39:45;102053.55;;;0.68;91.16
75551;BME280;65071;53.082;18.218;2024-01-11T06:42:11;102056.94;;;0.67;91.49
75551;BME280;65071;53.082;18.218;2024-01-11T06:44:37;102047.55;;;0.68;91.22
75551;BME280;65071;53.082;18.218;2024-01-11T06:47:04;102032.85;;;0.72;91.22
75551;BME280;65071;53.082;18.218;2024-01-11T06:49:31;102029.19;;;0.75;90.99
75551;BME280;65071;53.082;18.218;2024-01-11T06:51:58;102032.02;;;0.76;90.97
75551;BME280;65071;53.082;18.218;2024-01-11T06:54:24;102036.44;;;0.76;90.97
75551;BME280;65071;53.082;18.218;2024-01-11T06:56:51;102036.03;;;0.77;90.89
75551;BME280;65071;53.082;18.218;2024-01-11T06:59:17;102037.65;;;0.76;91.22
75551;BME280;65071;53.082;18.218;2024-01-11T07:01:44;102044.00;;;0.81;90.86
75551;BME280;65071;53.082;18.218;2024-01-11T07:04:11;102042.07;;;0.85;90.83
75551;BME280;65071;53.082;18.218;2024-01-11T07:06:37;102036.26;;;0.89;90.63
75551;BME280;65071;53.082;18.218;2024-01-11T07:09:04;102038.38;;;0.93;90.69
75551;BME280;65071;53.082;18.218;2024-01-11T07:11:31;102042.02;;;0.95;90.69
75551;BME280;65071;53.082;18.218;2024-01-11T07:13:58;102041.41;;;0.98;90.55
75551;BME280;65071;53.082;18.218;2024-01-11T07:16:25;102029.34;;;0.98;90.73
75551;BME280;65071;53.082;18.218;2024-01-11T07:18:52;102030.26;;;0.97;90.62
75551;BME280;65071;53.082;18.218;2024-01-11T07:21:22;102028.36;;;0.97;90.60
75551;BME280;65071;53.082;18.218;2024-01-11T07:23:55;102024.24;;;0.97;90.68
75551;BME280;65071;53.082;18.218;2024-01-11T07:26:23;102019.27;;;0.98;90.21
75551;BME280;65071;53.082;18.218;2024-01-11T07:28:49;102017.48;;;0.98;90.32
75551;BME280;65071;53.082;18.218;2024-01-11T07:31:17;102018.17;;;0.98;90.33
75551;BME280;65071;53.082;18.218;2024-01-11T07:33:43;102005.91;;;0.99;90.20
75551;BME280;65071;53.082;18.218;2024-01-11T07:36:10;102006.02;;;1.01;90.26
75551;BME280;65071;53.082;18.218;2024-01-11T07:38:37;102012.77;;;1.05;90.27
75551;BME280;65071;53.082;18.218;2024-01-11T07:41:03;102008.61;;;1.07;90.14
75551;BME280;65071;53.082;18.218;2024-01-11T07:43:30;102007.04;;;1.06;90.25
75551;BME280;65071;53.082;18.218;2024-01-11T07:45:58;102017.33;;;1.06;90.33
75551;BME280;65071;53.082;18.218;2024-01-11T07:48:24;102020.16;;;1.06;90.30
75551;BME280;65071;53.082;18.218;2024-01-11T07:50:51;102023.30;;;1.08;90.21
75551;BME280;65071;53.082;18.218;2024-01-11T07:53:17;102033.87;;;1.08;90.31
75551;BME280;65071;53.082;18.218;2024-01-11T07:55:43;102031.38;;;1.05;90.22
75551;BME280;65071;53.082;18.218;2024-01-11T07:58:13;102030.25;;;1.06;90.42
75551;BME280;65071;53.082;18.218;2024-01-11T08:00:41;102023.50;;;1.07;90.19
75551;BME280;65071;53.082;18.218;2024-01-11T08:03:08;102017.08;;;1.08;90.44
75551;BME280;65071;53.082;18.218;2024-01-11T08:05:35;102020.73;;;1.09;90.38
75551;BME280;65071;53.082;18.218;2024-01-11T08:08:01;102023.66;;;1.11;90.51
75551;BME280;65071;53.082;18.218;2024-01-11T08:10:30;102027.89;;;1.12;90.19
75551;BME280;65071;53.082;18.218;2024-01-11T08:13:00;102024.31;;;1.13;90.37
75551;BME280;65071;53.082;18.218;2024-01-11T08:15:26;102010.79;;;1.14;90.33
75551;BME280;65071;53.082;18.218;2024-01-11T08:17:52;102012.52;;;1.16;90.23
75551;BME280;65071;53.082;18.218;2024-01-11T08:20:19;102016.77;;;1.16;90.09
75551;BME280;65071;53.082;18.218;2024-01-11T08:22:46;102031.52;;;1.14;90.08
75551;BME280;65071;53.082;18.218;2024-01-11T08:25:13;102035.08;;;1.14;90.19
75551;BME280;65071;53.082;18.218;2024-01-11T08:27:40;102036.73;;;1.13;90.36
75551;BME280;65071;53.082;18.218;2024-01-11T08:30:07;102030.84;;;1.13;90.34
75551;BME280;65071;53.082;18.218;2024-01-11T08:32:34;102027.79;;;1.15;90.34
75551;BME280;65071;53.082;18.218;2024-01-11T08:35:05;102028.38;;;1.17;90.39
75551;BME280;65071;53.082;18.218;2024-01-11T08:37:33;102027.07;;;1.19;90.56
75551;BME280;65071;53.082;18.218;2024-01-11T08:39:59;102019.65;;;1.22;90.68
75551;BME280;65071;53.082;18.218;2024-01-11T08:42:25;102024.67;;;1.25;90.38
75551;BME280;65071;53.082;18.218;2024-01-11T08:44:52;102040.67;;;1.28;90.11
75551;BME280;65071;53.082;18.218;2024-01-11T08:49:44;102036.34;;;1.34;90.62
75551;BME280;65071;53.082;18.218;2024-01-11T08:52:11;102042.36;;;1.39;90.29
75551;BME280;65071;53.082;18.218;2024-01-11T08:54:37;102047.52;;;1.42;90.32
75551;BME280;65071;53.082;18.218;2024-01-11T08:57:03;102045.02;;;1.48;90.25
75551;BME280;65071;53.082;18.218;2024-01-11T08:59:30;102044.37;;;1.50;90.32
75551;BME280;65071;53.082;18.218;2024-01-11T09:01:56;102042.58;;;1.55;90.37
75551;BME280;65071;53.082;18.218;2024-01-11T09:04:23;102045.94;;;1.60;90.19
75551;BME280;65071;53.082;18.218;2024-01-11T09:06:49;102052.12;;;1.64;90.21
75551;BME280;65071;53.082;18.218;2024-01-11T09:09:15;102059.77;;;1.72;89.81
75551;BME280;65071;53.082;18.218;2024-01-11T09:11:43;102064.95;;;1.79;89.98
75551;BME280;65071;53.082;18.218;2024-01-11T09:14:09;102066.10;;;1.85;90.13
75551;BME280;65071;53.082;18.218;2024-01-11T09:16:42;102067.11;;;1.91;89.62
75551;BME280;65071;53.082;18.218;2024-01-11T09:19:12;102068.13;;;1.96;90.10
75551;BME280;65071;53.082;18.218;2024-01-11T09:21:38;102067.32;;;1.98;89.82
75551;BME280;65071;53.082;18.218;2024-01-11T09:24:05;102062.61;;;2.00;89.76
75551;BME280;65071;53.082;18.218;2024-01-11T09:26:31;102061.27;;;2.02;89.83
75551;BME280;65071;53.082;18.218;2024-01-11T09:28:58;102055.19;;;2.08;90.05
75551;BME280;65071;53.082;18.218;2024-01-11T09:31:24;102052.32;;;2.08;89.10
75551;BME280;65071;53.082;18.218;2024-01-11T09:33:50;102050.13;;;2.10;89.70
75551;BME280;65071;53.082;18.218;2024-01-11T09:36:17;102055.02;;;2.11;89.32
75551;BME280;65071;53.082;18.218;2024-01-11T09:38:44;102050.15;;;2.09;89.36
75551;BME280;65071;53.082;18.218;2024-01-11T09:41:12;102050.18;;;2.12;89.31
75551;BME280;65071;53.082;18.218;2024-01-11T09:43:43;102047.77;;;2.15;89.42
75551;BME280;65071;53.082;18.218;2024-01-11T09:46:10;102053.81;;;2.18;89.81
75551;BME280;65071;53.082;18.218;2024-01-11T09:48:38;102049.09;;;2.21;89.47
75551;BME280;65071;53.082;18.218;2024-01-11T09:51:10;102052.64;;;2.25;89.36
75551;BME280;65071;53.082;18.218;2024-01-11T09:53:40;102049.66;;;2.28;89.58
75551;BME280;65071;53.082;18.218;2024-01-11T09:56:09;102041.75;;;2.30;89.11
75551;BME280;65071;53.082;18.218;2024-01-11T09:58:36;102044.20;;;2.31;89.07
75551;BME280;65071;53.082;18.218;2024-01-11T10:01:09;102046.23;;;2.33;89.04
75551;BME280;65071;53.082;18.218;2024-01-11T10:03:39;102042.27;;;2.35;88.97
75551;BME280;65071;53.082;18.218;2024-01-11T10:06:08;102036.81;;;2.37;88.76
75551;BME280;65071;53.082;18.218;2024-01-11T10:08:36;102026.90;;;2.41;88.88
75551;BME280;65071;53.082;18.218;2024-01-11T10:11:03;102025.96;;;2.45;88.94
75551;BME280;65071;53.082;18.218;2024-01-11T10:13:31;102026.83;;;2.46;88.75
75551;BME280;65071;53.082;18.218;2024-01-11T10:16:07;102030.71;;;2.46;88.40
75551;BME280;65071;53.082;18.218;2024-01-11T10:18:36;102030.85;;;2.47;88.43
75551;BME280;65071;53.082;18.218;2024-01-11T10:21:03;102030.73;;;2.49;88.68
75551;BME280;65071;53.082;18.218;2024-01-11T10:25:56;102033.65;;;2.55;88.13
75551;BME280;65071;53.082;18.218;2024-01-11T10:28:25;102031.88;;;2.55;87.99
75551;BME280;65071;53.082;18.218;2024-01-11T10:30:53;102031.27;;;2.57;87.81
75551;BME280;65071;53.082;18.218;2024-01-11T10:33:21;102031.52;;;2.63;88.34
75551;BME280;65071;53.082;18.218;2024-01-11T10:35:48;102029.94;;;2.70;88.25
75551;BME280;65071;53.082;18.218;2024-01-11T10:38:17;102025.98;;;2.71;88.08
75551;BME280;65071;53.082;18.218;2024-01-11T10:40:44;102016.44;;;2.70;88.06
75551;BME280;65071;53.082;18.218;2024-01-11T10:43:11;102021.98;;;2.69;87.66
75551;BME280;65071;53.082;18.218;2024-01-11T10:45:39;102014.36;;;2.69;87.96
75551;BME280;65071;53.082;18.218;2024-01-11T10:48:17;102021.59;;;2.70;87.47
75551;BME280;65071;53.082;18.218;2024-01-11T10:50:45;102023.42;;;2.69;87.54
75551;BME280;65071;53.082;18.218;2024-01-11T10:56:03;102027.02;;;2.68;87.41
75551;BME280;65071;53.082;18.218;2024-01-11T10:58:31;102034.40;;;2.70;87.67
75551;BME280;65071;53.082;18.218;2024-01-11T11:00:59;102024.05;;;2.67;87.02
75551;BME280;65071;53.082;18.218;2024-01-11T11:03:27;102017.41;;;2.68;87.16
75551;BME280;65071;53.082;18.218;2024-01-11T11:05:55;102012.24;;;2.69;87.29
75551;BME280;65071;53.082;18.218;2024-01-11T11:08:23;102003.25;;;2.68;86.91
75551;BME280;65071;53.082;18.218;2024-01-11T11:11:03;102001.94;;;2.69;87.02
75551;BME280;65071;53.082;18.218;2024-01-11T11:13:33;101996.14;;;2.75;86.87
75551;BME280;65071;53.082;18.218;2024-01-11T11:16:03;101991.55;;;2.81;86.51
75551;BME280;65071;53.082;18.218;2024-01-11T11:18:31;101983.99;;;2.83;86.87
75551;BME280;65071;53.082;18.218;2024-01-11T11:20:57;101978.11;;;2.84;86.48
75551;BME280;65071;53.082;18.218;2024-01-11T11:23:24;101977.59;;;2.84;86.37
75551;BME280;65071;53.082;18.218;2024-01-11T11:25:54;101971.89;;;2.84;86.07
75551;BME280;65071;53.082;18.218;2024-01-11T11:28:21;101966.69;;;2.81;85.79
75551;BME280;65071;53.082;18.218;2024-01-11T11:30:49;101961.20;;;2.81;86.17
75551;BME280;65071;53.082;18.218;2024-01-11T11:33:20;101964.46;;;2.83;86.18
75551;BME280;65071;53.082;18.218;2024-01-11T11:35:57;101957.27;;;2.81;86.31
75551;BME280;65071;53.082;18.218;2024-01-11T11:38:26;101960.98;;;2.85;86.25
75551;BME280;65071;53.082;18.218;2024-01-11T11:40:56;101960.25;;;2.82;86.04
75551;BME280;65071;53.082;18.218;2024-01-11T11:43:24;101959.83;;;2.83;86.32
75551;BME280;65071;53.082;18.218;2024-01-11T11:45:52;101960.39;;;2.87;86.26
75551;BME280;65071;53.082;18.218;2024-01-11T11:48:47;101965.21;;;2.90;86.04
75551;BME280;65071;53.082;18.218;2024-01-11T11:51:15;101966.21;;;2.87;85.98
75551;BME280;65071;53.082;18.218;2024-01-11T11:53:42;101970.95;;;2.81;85.89
75551;BME280;65071;53.082;18.218;2024-01-11T11:56:10;101965.92;;;2.82;86.27
75551;BME280;65071;53.082;18.218;2024-01-11T11:58:37;101960.65;;;2.81;85.90
75551;BME280;65071;53.082;18.218;2024-01-11T12:01:05;101961.42;;;2.80;85.59
75551;BME280;65071;53.082;18.218;2024-01-11T12:03:33;101958.37;;;2.81;85.92
75551;BME280;65071;53.082;18.218;2024-01-11T12:06:04;101959.51;;;2.79;85.95
75551;BME280;65071;53.082;18.218;2024-01-11T12:08:32;101947.85;;;2.78;86.31
75551;BME280;65071;53.082;18.218;2024-01-11T12:10:59;101949.45;;;2.78;86.12
75551;BME280;65071;53.082;18.218;2024-01-11T12:13:26;101944.05;;;2.79;86.00
75551;BME280;65071;53.082;18.218;2024-01-11T12:15:56;101947.30;;;2.79;86.02
75551;BME280;65071;53.082;18.218;2024-01-11T12:18:30;101942.64;;;2.79;86.15
75551;BME280;65071;53.082;18.218;2024-01-11T12:20:56;101935.71;;;2.79;86.05
75551;BME280;65071;53.082;18.218;2024-01-11T12:23:23;101932.04;;;2.81;86.11
75551;BME280;65071;53.082;18.218;2024-01-11T12:25:50;101929.31;;;2.83;85.66
75551;BME280;65071;53.082;18.218;2024-01-11T12:28:16;101924.89;;;2.82;86.08
75551;BME280;65071;53.082;18.218;2024-01-11T12:30:44;101926.85;;;2.82;85.70
75551;BME280;65071;53.082;18.218;2024-01-11T12:33:11;101927.73;;;2.82;85.90
75551;BME280;65071;53.082;18.218;2024-01-11T12:35:38;101935.01;;;2.90;85.94
75551;BME280;65071;53.082;18.218;2024-01-11T12:38:05;101949.47;;;2.92;85.80
75551;BME280;65071;53.082;18.218;2024-01-11T12:40:32;101953.11;;;2.94;85.64
75551;BME280;65071;53.082;18.218;2024-01-11T12:42:59;101948.12;;;2.94;85.78
75551;BME280;65071;53.082;18.218;2024-01-11T12:45:25;101950.45;;;2.94;85.75
75551;BME280;65071;53.082;18.218;2024-01-11T12:47:52;101949.84;;;2.92;85.93
75551;BME280;65071;53.082;18.218;2024-01-11T12:50:19;101954.84;;;2.95;85.98
75551;BME280;65071;53.082;18.218;2024-01-11T12:52:47;101952.71;;;2.98;85.75
75551;BME280;65071;53.082;18.218;2024-01-11T12:55:20;101946.64;;;2.99;85.64